Time;durP1;ratioP1;P1;durP2;ratioP2;P2;SDS_P1;SDS_P2;PMS_P1;PMS_P2;Temp;Humidity;BMP_temperature;BMP_pressure;BME280_temperature;BME280_humidity;BME280_pressure;Samples;Min_cycle;Max_cycle;Signal;HPM_P1;HPM_P2
2022/08/24 00:02:42;;;;;;;7.93;2.37;;;;;;;19.39;100.00;99819.31;6324143;28;20218;-73
2022/08/24 00:05:43;;;;;;;3.27;2.20;;;;;;;19.38;100.00;99820.31;6324552;28;20069;-73
2022/08/24 00:08:48;;;;;;;3.70;2.70;;;;;;;19.31;100.00;99824.53;6324040;28;20047;-75
2022/08/24 00:11:51;;;;;;;6.25;2.55;;;;;;;19.22;100.00;99799.88;6323860;28;20050;-75
2022/08/24 00:14:53;;;;;;;3.55;2.72;;;;;;;19.17;100.00;99799.53;6322661;28;20100;-72
2022/08/24 00:17:54;;;;;;;4.80;2.40;;;;;;;19.13;100.00;99809.56;6323674;28;20097;-72
2022/08/24 00:20:55;;;;;;;5.60;2.53;;;;;;;19.21;100.00;99806.16;6322705;28;20044;-73
2022/08/24 00:23:56;;;;;;;6.85;2.42;;;;;;;19.20;100.00;99807.13;6323681;28;20464;-73
2022/08/24 00:26:57;;;;;;;3.80;2.73;;;;;;;19.12;100.00;99807.88;6323573;28;20117;-73
2022/08/24 00:29:58;;;;;;;4.90;2.63;;;;;;;19.12;100.00;99821.13;6323466;28;20082;-72
2022/08/24 00:32:58;;;;;;;5.03;2.70;;;;;;;19.02;100.00;99823.03;6322156;28;20062;-72
2022/08/24 00:35:59;;;;;;;6.47;2.50;;;;;;;18.91;100.00;99823.28;6322208;28;20047;-73
2022/08/24 00:39:00;;;;;;;7.93;2.90;;;;;;;18.91;100.00;99820.63;6321998;28;20036;-72
2022/08/24 00:42:01;;;;;;;5.50;2.80;;;;;;;18.89;100.00;99815.50;6322060;28;20495;-73
2022/08/24 00:45:02;;;;;;;9.93;3.00;;;;;;;18.92;100.00;99830.22;6323033;28;20039;-73
2022/08/24 00:48:10;;;;;;;4.97;2.60;;;;;;;18.96;100.00;99836.03;6322005;28;20043;-72
2022/08/24 00:51:40;;;;;;;4.03;2.70;;;;;;;19.00;100.00;99847.97;6322978;28;20145;-73
2022/08/24 00:54:44;;;;;;;3.22;2.53;;;;;;;19.04;100.00;99859.88;6321700;28;20036;-72
2022/08/24 00:57:48;;;;;;;6.22;3.30;;;;;;;18.77;100.00;99871.34;6322705;28;20056;-72
2022/08/24 01:00:55;;;;;;;6.97;3.00;;;;;;;18.73;100.00;99882.22;6321568;28;20506;-72
2022/08/24 01:03:57;;;;;;;8.07;3.50;;;;;;;18.69;100.00;99885.31;6304334;28;20086;-73
2022/08/24 01:06:58;;;;;;;4.60;2.97;;;;;;;18.79;100.00;99882.66;6321444;28;20459;-72
2022/08/24 01:10:04;;;;;;;8.90;3.10;;;;;;;18.72;100.00;99887.69;6322562;28;20044;-72
2022/08/24 01:13:08;;;;;;;6.97;3.28;;;;;;;18.73;100.00;99884.03;6321289;28;20047;-72
2022/08/24 01:16:10;;;;;;;6.53;3.00;;;;;;;18.81;100.00;99884.16;6322344;28;20060;-73
2022/08/24 01:19:49;;;;;;;5.85;2.55;;;;;;;18.79;100.00;99882.66;6320917;28;20036;-72
2022/08/24 01:23:02;;;;;;;7.15;2.83;;;;;;;18.79;100.00;99880.00;6303964;28;20055;-72
2022/08/24 01:26:05;;;;;;;4.90;2.60;;;;;;;18.83;100.00;99884.81;6322308;28;20201;-72
2022/08/24 01:29:10;;;;;;;6.70;2.65;;;;;;;18.83;100.00;99884.81;6321941;28;20545;-72
2022/08/24 01:32:12;;;;;;;5.80;2.60;;;;;;;18.88;100.00;99882.56;6321982;28;20579;-72
2022/08/24 01:35:13;;;;;;;7.63;2.90;;;;;;;18.96;100.00;99886.25;6320675;28;20063;-72
2022/08/24 01:38:15;;;;;;;5.83;2.70;;;;;;;18.98;100.00;99892.22;6320535;28;20044;-73
2022/08/24 01:41:19;;;;;;;8.88;2.67;;;;;;;18.93;100.00;99890.88;6321810;28;20096;-72
2022/08/24 01:44:21;;;;;;;4.40;2.60;;;;;;;18.92;100.00;99880.44;6321736;28;20047;-73
2022/08/24 01:47:22;;;;;;;6.85;2.60;;;;;;;18.93;100.00;99887.41;6320407;28;20134;-73
2022/08/24 01:50:23;;;;;;;4.87;2.70;;;;;;;18.95;100.00;99890.72;6320401;28;20048;-72
2022/08/24 01:53:24;;;;;;;6.85;2.88;;;;;;;18.96;100.00;99892.38;6320422;28;20089;-72
2022/08/24 01:56:28;;;;;;;5.32;2.58;;;;;;;18.99;100.00;99902.66;6321317;28;20044;-72
2022/08/24 01:59:28;;;;;;;10.07;2.60;;;;;;;18.95;100.00;99903.13;6321466;28;20478;-72
2022/08/24 02:02:31;;;;;;;6.57;2.83;;;;;;;18.85;100.00;99895.25;6321342;28;20052;-72
2022/08/24 02:05:32;;;;;;;;;;;;;;;18.87;100.00;99898.59;6303555;28;20048;-72
2022/08/24 02:08:34;;;;;;;3.13;2.78;;;;;;;18.77;100.00;99906.53;6321398;28;19997;-72
2022/08/24 02:11:36;;;;;;;6.25;2.80;;;;;;;18.68;100.00;99916.22;6321171;28;20072;-72
2022/08/24 02:14:37;;;;;;;4.18;2.60;;;;;;;18.55;100.00;99917.53;6319107;28;20546;-72
2022/08/24 02:17:39;;;;;;;6.07;2.93;;;;;;;18.59;100.00;99908.34;6319776;28;20040;-72
2022/08/24 02:20:40;;;;;;;4.18;3.05;;;;;;;18.61;100.00;99903.72;6320962;28;20050;-72
2022/08/24 02:23:41;;;;;;;8.17;3.10;;;;;;;18.49;100.00;99892.53;6319619;28;20040;-72
2022/08/24 02:26:44;;;;;;;6.30;2.70;;;;;;;18.46;100.00;99890.19;6302767;28;20051;-72
2022/08/24 02:29:46;;;;;;;4.95;2.97;;;;;;;18.51;100.00;99894.06;6320633;28;20052;-72
2022/08/24 02:32:51;;;;;;;5.13;2.80;;;;;;;18.42;100.00;99880.91;6302883;28;20047;-72
2022/08/24 02:35:53;;;;;;;6.13;2.80;;;;;;;18.55;100.00;99891.94;6319411;28;20556;-73
2022/08/24 02:38:54;;;;;;;;;;;;;;;18.49;100.00;99888.09;6321142;28;20055;-72
2022/08/24 02:41:54;;;;;;;7.45;3.05;;;;;;;18.48;100.00;99891.72;6319447;28;20350;-72
2022/08/24 02:44:55;;;;;;;6.18;2.90;;;;;;;18.46;100.00;99875.19;6320599;28;20048;-71
2022/08/24 02:47:56;;;;;;;5.67;3.00;;;;;;;18.46;100.00;99869.06;6320646;28;20068;-71
2022/08/24 02:50:56;;;;;;;7.03;3.08;;;;;;;18.46;100.00;99866.44;6320622;28;20127;-71
2022/08/24 02:53:59;;;;;;;7.93;3.50;;;;;;;18.41;100.00;99863.38;6319344;28;20101;-71
2022/08/24 02:57:00;;;;;;;5.03;2.90;;;;;;;18.41;100.00;99853.69;6319108;28;20040;-72
2022/08/24 03:00:00;;;;;;;3.33;2.63;;;;;;;18.46;100.00;99850.56;6321695;28;20119;-72
2022/08/24 03:03:01;;;;;;;6.47;2.97;;;;;;;18.45;100.00;99847.13;6320203;28;20044;-72
2022/08/24 03:06:02;;;;;;;6.05;3.22;;;;;;;18.48;100.00;99840.69;6321395;28;20044;-72
2022/08/24 03:09:03;;;;;;;7.72;3.30;;;;;;;18.46;100.00;99854.03;6321428;28;20052;-71
2022/08/24 03:12:04;;;;;;;6.45;3.38;;;;;;;18.25;100.00;99843.75;6320032;28;20387;-71
2022/08/24 03:15:08;;;;;;;5.67;3.43;;;;;;;18.30;100.00;99846.81;6319963;28;20062;-74
2022/08/24 03:18:09;;;;;;;5.00;2.80;;;;;;;18.26;100.00;99847.22;6320319;28;20036;-74
2022/08/24 03:21:12;;;;;;;8.97;4.37;;;;;;;18.32;100.00;99844.84;6320235;28;20063;-74
2022/08/24 03:24:13;;;;;;;8.38;4.28;;;;;;;18.36;100.00;99832.16;6318951;28;20115;-74
2022/08/24 03:27:14;;;;;;;6.57;3.80;;;;;;;18.32;100.00;99839.56;6321701;28;20458;-73
2022/08/24 03:30:16;;;;;;;7.65;3.47;;;;;;;18.27;100.00;99833.06;6324957;28;20048;-74
2022/08/24 03:33:17;;;;;;;7.20;3.28;;;;;;;18.31;100.00;99826.50;6323720;28;20036;-73
2022/08/24 03:36:20;;;;;;;8.27;3.63;;;;;;;18.26;100.00;99816.38;6324913;28;20043;-73
2022/08/24 03:39:21;;;;;;;7.32;3.47;;;;;;;18.28;100.00;99818.84;6323332;28;20081;-74
2022/08/24 03:42:22;;;;;;;9.03;4.03;;;;;;;18.24;100.00;99809.56;6324667;28;20036;-74
2022/08/24 03:45:22;;;;;;;8.43;3.90;;;;;;;18.18;100.00;99803.09;6323388;28;20047;-74
2022/08/24 03:48:23;;;;;;;8.03;3.57;;;;;;;18.29;100.00;99808.16;6323333;28;20532;-74
2022/08/24 03:51:26;;;;;;;4.97;3.35;;;;;;;18.38;100.00;99819.63;6324508;28;20119;-74
2022/08/24 03:54:27;;;;;;;6.78;3.70;;;;;;;18.42;100.00;99826.25;6324350;28;20480;-74
2022/08/24 03:57:28;;;;;;;9.30;4.20;;;;;;;18.42;100.00;99842.13;6324284;28;20044;-74
2022/08/24 04:00:29;;;;;;;13.00;3.73;;;;;;;18.37;100.00;99828.53;6324337;28;20119;-74
2022/08/24 04:03:33;;;;;;;5.88;3.72;;;;;;;18.43;100.00;99840.28;6324181;28;20044;-74
2022/08/24 04:06:34;;;;;;;7.35;3.95;;;;;;;18.46;100.00;99842.66;6324043;28;20047;-74
2022/08/24 04:09:35;;;;;;;7.07;3.93;;;;;;;18.45;100.00;99844.47;6323990;28;20119;-71
2022/08/24 04:12:36;;;;;;;8.00;3.93;;;;;;;18.59;100.00;99847.56;6322768;28;20044;-72
2022/08/24 04:15:41;;;;;;;7.72;3.88;;;;;;;18.60;100.00;99850.06;6323696;28;20044;-72
2022/08/24 04:18:42;;;;;;;4.90;3.30;;;;;;;18.58;100.00;99852.03;6324608;28;20400;-74
2022/08/24 04:21:45;;;;;;;7.10;3.22;;;;;;;18.57;100.00;99854.81;6323764;28;20078;-74
2022/08/24 04:24:46;;;;;;;7.25;3.80;;;;;;;18.63;100.00;99856.84;6323298;28;20105;-74
2022/08/24 04:27:48;;;;;;;6.57;3.77;;;;;;;18.68;100.00;99863.34;6324443;28;20071;-74
2022/08/24 04:30:51;;;;;;;6.20;3.58;;;;;;;18.59;100.00;99864.25;6324650;28;20052;-74
2022/08/24 04:33:52;;;;;;;6.88;3.58;;;;;;;18.61;100.00;99870.19;6322651;28;20055;-74
2022/08/24 04:36:53;;;;;;;8.93;3.97;;;;;;;18.69;100.00;99877.38;6322184;28;20539;-73
2022/08/24 04:39:54;;;;;;;10.23;3.80;;;;;;;18.56;100.00;99872.47;6321735;28;20044;-75
2022/08/24 04:42:54;;;;;;;4.85;3.70;;;;;;;18.56;100.00;99877.75;6323698;28;20040;-74
2022/08/24 04:45:55;;;;;;;7.60;3.67;;;;;;;18.65;100.00;99883.97;6322963;28;20040;-74
2022/08/24 04:48:56;;;;;;;7.80;3.83;;;;;;;18.76;100.00;99882.91;6324164;28;20054;-74
2022/08/24 04:51:57;;;;;;;7.05;4.07;;;;;;;18.83;100.00;99898.03;6323839;28;20044;-72
2022/08/24 04:55:00;;;;;;;10.27;3.70;;;;;;;18.90;100.00;99906.19;6319738;28;20044;-72
2022/08/24 04:58:00;;;;;;;6.75;3.80;;;;;;;18.92;100.00;99907.72;6311997;28;20040;-71
2022/08/24 05:01:06;;;;;;;6.23;3.83;;;;;;;18.93;100.00;99919.13;6297482;28;20044;-71
2022/08/24 05:04:09;;;;;;;12.18;3.85;;;;;;;18.95;100.00;99925.09;6309752;28;20130;-71
2022/08/24 05:07:11;;;;;;;7.45;3.75;;;;;;;19.00;100.00;99919.34;6315918;28;20479;-72
2022/08/24 05:10:11;;;;;;;8.63;4.00;;;;;;;19.00;100.00;99925.47;6314176;28;20062;-71
2022/08/24 05:13:14;;;;;;;8.63;3.67;;;;;;;19.02;100.00;99917.38;6298622;28;20040;-72
2022/08/24 05:16:16;;;;;;;5.75;3.78;;;;;;;19.08;100.00;99916.78;6298510;28;20048;-74
2022/08/24 05:19:17;;;;;;;6.85;3.92;;;;;;;19.11;100.00;99927.06;6298353;28;20043;-71
2022/08/24 05:22:18;;;;;;;7.43;3.57;;;;;;;19.16;100.00;99923.97;6298102;28;20075;-71
2022/08/24 05:25:20;;;;;;;9.47;4.07;;;;;;;19.18;100.00;99925.47;6298140;28;20106;-71
2022/08/24 05:28:21;;;;;;;8.48;3.58;;;;;;;19.16;100.00;99931.88;6305162;28;20084;-72
2022/08/24 05:31:25;;;;;;;12.97;4.20;;;;;;;19.13;100.00;99933.03;6296051;28;20118;-71
2022/08/24 05:34:26;;;;;;;8.75;4.10;;;;;;;19.11;100.00;99922.59;6299170;28;20060;-71
2022/08/24 05:37:30;;;;;;;6.23;3.97;;;;;;;19.29;100.00;99919.94;6318916;28;20503;-72
2022/08/24 05:40:35;;;;;;;6.43;3.80;;;;;;;19.37;100.00;99924.44;6321662;28;20291;-72
2022/08/24 05:43:38;;;;;;;5.60;3.47;;;;;;;19.44;100.00;99925.50;6323089;28;20043;-72
2022/08/24 05:46:39;;;;;;;7.68;3.55;;;;;;;19.47;100.00;99930.47;6304590;28;20412;-72
2022/08/24 05:49:40;;;;;;;8.57;3.60;;;;;;;19.53;100.00;99927.22;6314603;28;20045;-72
2022/08/24 05:52:43;;;;;;;5.93;3.80;;;;;;;19.64;100.00;99939.41;6318153;28;20060;-71
2022/08/24 05:55:44;;;;;;;8.82;3.78;;;;;;;19.71;100.00;99939.63;6322455;28;20093;-71
2022/08/24 05:58:46;;;;;;;7.50;3.93;;;;;;;19.77;100.00;99944.31;6311071;28;20036;-72
2022/08/24 06:01:49;;;;;;;6.90;3.72;;;;;;;19.77;100.00;99941.66;6297521;28;20044;-71
2022/08/24 06:04:50;;;;;;;6.55;3.65;;;;;;;19.87;100.00;99949.47;6297697;28;20123;-75
2022/08/24 06:07:51;;;;;;;5.37;3.40;;;;;;;19.96;100.00;99951.19;6297576;28;20500;-75
2022/08/24 06:10:51;;;;;;;11.53;3.70;;;;;;;20.00;100.00;99960.47;6297831;28;20043;-76
2022/08/24 06:13:55;;;;;;;9.90;4.20;;;;;;;20.03;100.00;99960.16;6295692;28;20056;-74
2022/08/24 06:16:56;;;;;;;8.48;3.80;;;;;;;20.10;100.00;99958.56;6305956;28;20105;-75
2022/08/24 06:19:57;;;;;;;5.43;3.37;;;;;;;20.19;100.00;99955.94;6322399;28;20048;-74
2022/08/24 06:23:00;;;;;;;6.00;3.33;;;;;;;20.29;100.00;99964.59;6322496;28;20076;-71
2022/08/24 06:29:23;;;;;;;7.93;3.80;;;;;;;20.32;100.00;99964.28;6299386;28;20117;-71
2022/08/24 06:32:25;;;;;;;7.57;3.50;;;;;;;20.43;100.00;99960.53;6334930;27;20056;-74
2022/08/24 06:35:26;;;;;;;12.33;3.90;;;;;;;20.57;100.00;99967.03;6300334;28;20044;-71
2022/08/24 06:38:27;;;;;;;5.60;3.80;;;;;;;20.37;100.00;99972.59;6321433;28;20051;-71
2022/08/24 06:41:28;;;;;;;8.87;4.10;;;;;;;20.32;100.00;99970.44;6321207;28;20059;-74
2022/08/24 06:44:29;;;;;;;7.10;4.07;;;;;;;20.24;100.00;99969.53;6307633;28;20521;-74
2022/08/24 06:47:33;;;;;;;7.25;4.20;;;;;;;20.08;100.00;99968.47;6313785;28;20046;-74
2022/08/24 06:50:34;;;;;;;10.07;4.13;;;;;;;20.09;100.00;99967.47;6308514;28;20044;-74
2022/08/24 06:53:35;;;;;;;6.82;4.60;;;;;;;20.00;100.00;99963.13;6294524;28;20545;-74
2022/08/24 06:56:37;;;;;;;7.60;4.40;;;;;;;20.00;100.00;99963.13;6294637;28;20048;-74
2022/08/24 06:59:39;;;;;;;5.65;4.00;;;;;;;20.02;100.00;99961.16;6306840;28;20040;-74
2022/08/24 07:02:42;;;;;;;8.52;4.70;;;;;;;20.03;100.00;99969.94;6303125;28;20443;-71
2022/08/24 07:05:55;;;;;;;9.40;4.57;;;;;;;19.93;100.00;99970.03;6302176;28;20480;-74
2022/08/24 07:08:55;;;;;;;8.90;4.82;;;;;;;19.79;100.00;99965.28;6315965;28;20380;-74
2022/08/24 07:11:56;;;;;;;7.90;4.73;;;;;;;19.81;100.00;99972.13;6326018;28;20055;-74
2022/08/24 07:14:57;;;;;;;8.73;4.57;;;;;;;19.85;100.00;99970.81;6325782;28;20498;-74
2022/08/24 07:17:59;;;;;;;8.27;5.18;;;;;;;19.88;100.00;99969.69;6314433;28;20047;-74
2022/08/24 07:21:01;;;;;;;8.85;5.03;;;;;;;19.90;100.00;99973.81;6316200;28;20051;-74
2022/08/24 07:24:03;;;;;;;10.75;5.28;;;;;;;19.96;100.00;99971.56;6305625;28;20053;-72
2022/08/24 07:27:06;;;;;;;;;;;;;;;20.05;100.00;99971.41;6306602;28;20044;-74
2022/08/24 07:30:07;;;;;;;8.32;4.63;;;;;;;20.00;100.00;99979.03;6314922;28;19920;-74
2022/08/24 07:33:09;;;;;;;7.85;4.80;;;;;;;19.98;100.00;99978.34;6302783;28;20062;-74
2022/08/24 07:36:11;;;;;;;7.57;4.88;;;;;;;19.98;100.00;99974.88;6324892;28;20064;-74
2022/08/24 07:39:12;;;;;;;8.55;5.20;;;;;;;20.02;100.00;99974.41;6312024;28;20119;-72
2022/08/24 07:42:13;;;;;;;6.97;4.78;;;;;;;20.02;100.00;99976.22;6297881;28;20048;-75
2022/08/24 07:45:14;;;;;;;13.23;5.03;;;;;;;20.12;100.00;99975.13;6324828;28;20044;-72
2022/08/24 07:48:17;;;;;;;11.10;5.20;;;;;;;20.15;100.00;99973.13;6323285;28;20044;-72
2022/08/24 07:51:20;;;;;;;10.82;4.95;;;;;;;20.14;100.00;99961.72;6323344;28;20044;-72
2022/08/24 07:54:21;;;;;;;8.88;4.60;;;;;;;20.22;100.00;99974.16;6324508;28;20044;-73
2022/08/24 07:57:22;;;;;;;8.27;4.70;;;;;;;20.40;100.00;99982.84;6324455;28;20474;-72
2022/08/24 08:00:23;;;;;;;6.20;4.33;;;;;;;20.59;100.00;99989.78;6306093;28;20059;-72
2022/08/24 08:03:28;;;;;;;10.10;4.53;;;;;;;20.81;100.00;99992.81;6323019;28;20048;-72
2022/08/24 08:06:31;;;;;;;13.23;4.97;;;;;;;20.92;100.00;100000.50;6323076;28;20078;-72
2022/08/24 08:09:35;;;;;;;10.90;4.55;;;;;;;21.16;100.00;99998.88;6322942;28;20047;-73
2022/08/24 08:12:36;;;;;;;10.90;4.65;;;;;;;21.42;100.00;100004.91;6321906;28;20040;-74
2022/08/24 08:15:37;;;;;;;8.80;5.30;;;;;;;21.70;100.00;100013.38;6324002;28;20040;-73
2022/08/24 08:18:38;;;;;;;10.73;5.10;;;;;;;21.92;100.00;100009.19;6322453;28;20139;-73
2022/08/24 08:25:07;;;;;;;6.72;3.88;;;;;;;22.53;100.00;100011.41;6324162;28;20047;-74
2022/08/24 08:28:08;;;;;;;4.85;3.50;;;;;;;22.53;100.00;100009.56;6323471;28;20500;-73
2022/08/24 08:31:09;;;;;;;8.40;3.73;;;;;;;22.71;100.00;100009.31;6322467;28;20043;-73
2022/08/24 08:34:11;;;;;;;6.77;2.70;;;;;;;22.96;100.00;100018.97;6322278;28;20464;-73
2022/08/24 08:37:13;;;;;;;4.47;2.63;;;;;;;23.56;100.00;100009.47;6322279;28;20044;-74
2022/08/24 08:40:43;;;;;;;7.97;3.28;;;;;;;23.65;100.00;100011.06;6322129;28;20059;-72
2022/08/24 08:43:51;;;;;;;4.30;2.92;;;;;;;23.65;100.00;100011.06;6288044;28;20424;-72
2022/08/24 08:47:26;;;;;;;5.60;3.00;;;;;;;23.71;100.00;100005.81;6321875;28;20048;-72
2022/08/24 08:50:40;;;;;;;6.85;3.30;;;;;;;23.46;100.00;100007.88;6323157;28;20040;-72
2022/08/24 08:53:59;;;;;;;8.68;3.20;;;;;;;23.85;100.00;100008.75;6321832;28;20044;-73
2022/08/24 08:57:00;;;;;;;7.50;2.72;;;;;;;24.23;100.00;100014.84;6321565;28;20121;-71
2022/08/24 09:00:12;;;;;;;10.50;3.20;;;;;;;24.66;100.00;100019.53;6287821;28;20556;-74
2022/08/24 09:03:27;;;;;;;8.65;2.67;;;;;;;25.14;100.00;100014.53;6281697;28;20059;-71
2022/08/24 09:06:31;;;;;;;8.70;2.70;;;;;;;25.45;100.00;100016.94;6297791;28;20041;-71
2022/08/24 09:09:42;;;;;;;4.05;2.53;;;;;;;25.52;100.00;100030.34;6320737;28;20070;-71
2022/08/24 09:13:05;;;;;;;5.68;2.65;;;;;;;25.37;100.00;100027.75;6314987;28;20091;-72
2022/08/24 09:16:05;;;;;;;6.63;2.60;;;;;;;24.93;100.00;100023.34;6319605;28;20044;-73
2022/08/24 09:19:16;;;;;;;4.55;2.10;;;;;;;25.69;100.00;100026.38;6321738;28;20089;-74
2022/08/24 09:22:19;;;;;;;4.80;2.10;;;;;;;25.68;91.94;100018.59;6320425;28;20567;-74
2022/08/24 09:25:25;;;;;;;5.80;2.00;;;;;;;26.22;91.94;100017.13;6302659;28;20052;-71
2022/08/24 09:28:29;;;;;;;5.47;2.08;;;;;;;26.23;82.79;100024.13;6319799;28;20063;-71
2022/08/24 09:31:55;;;;;;;4.20;2.20;;;;;;;26.12;88.17;100022.81;6319992;28;20062;-71
2022/08/24 09:35:02;;;;;;;4.65;2.25;;;;;;;26.33;86.13;100013.91;6303730;28;20564;-73
2022/08/24 09:38:37;;;;;;;3.42;1.70;;;;;;;26.60;84.14;100019.41;6321954;28;20092;-73
2022/08/24 09:42:10;;;;;;;6.75;2.55;;;;;;;26.54;86.39;100021.84;6320509;28;20040;-74
2022/08/24 09:45:41;;;;;;;6.05;2.50;;;;;;;26.58;91.44;100008.91;6296670;28;20055;-74
2022/08/24 09:48:51;;;;;;;6.05;2.47;;;;;;;26.92;85.38;100002.66;6320203;28;20048;-74
2022/08/24 09:52:14;;;;;;;6.15;2.47;;;;;;;26.90;80.38;100001.19;6320316;28;20044;-74
2022/08/24 09:55:28;;;;;;;4.72;2.35;;;;;;;26.92;88.56;99999.97;6303468;28;20048;-71
2022/08/24 09:58:32;;;;;;;9.20;2.33;;;;;;;27.19;82.70;100000.03;6321379;28;20044;-71
2022/08/24 10:01:36;;;;;;;4.95;2.40;;;;;;;27.30;81.44;99998.63;6319987;28;20476;-71
2022/08/24 10:05:07;;;;;;;7.55;2.58;;;;;;;27.71;77.75;99997.59;6336967;28;20055;-71
2022/08/24 10:08:26;;;;;;;3.83;1.77;;;;;;;26.46;81.28;100003.28;6319893;28;20508;-74
2022/08/24 10:11:39;;;;;;;5.30;2.10;;;;;;;26.57;81.80;100001.06;6319987;28;20044;-71
2022/08/24 10:14:49;;;;;;;8.55;2.25;;;;;;;26.84;85.81;99992.13;6319986;28;20044;-71
2022/08/24 10:18:08;;;;;;;5.85;1.98;;;;;;;27.50;81.67;99993.28;6319529;28;20048;-71
2022/08/24 10:21:18;;;;;;;9.15;2.60;;;;;;;27.39;82.49;99992.06;6321034;28;20068;-73
2022/08/24 10:24:55;;;;;;;4.75;2.10;;;;;;;26.62;82.89;99979.91;6321131;28;20036;-74
2022/08/24 10:28:06;;;;;;;7.80;2.28;;;;;;;26.91;87.08;99982.28;6311136;28;20048;-73
2022/08/24 10:31:17;;;;;;;7.43;2.00;;;;;;;27.36;77.25;99988.94;6319577;28;20055;-73
2022/08/24 10:34:43;;;;;;;11.13;2.27;;;;;;;27.21;75.70;99989.13;6320858;28;20084;-71
2022/08/24 10:41:43;;;;;;;7.10;1.90;;;;;;;28.00;77.93;99998.22;6320563;28;20052;-73
2022/08/24 10:45:03;;;;;;;3.95;1.70;;;;;;;28.40;69.24;99987.41;6319502;28;20425;-73
2022/08/24 10:48:19;;;;;;;5.38;2.42;;;;;;;28.73;73.80;99987.28;6319442;28;20580;-74
2022/08/24 10:51:45;;;;;;;9.00;2.72;;;;;;;28.51;72.28;99989.44;6320500;28;20044;-71
2022/08/24 10:54:46;;;;;;;9.55;2.67;;;;;;;28.68;69.71;99989.78;6319155;28;20052;-74
2022/08/24 10:58:16;;;;;;;4.40;1.88;;;;;;;28.65;70.56;99985.66;6320401;28;20039;-71
2022/08/24 11:01:20;;;;;;;5.00;1.95;;;;;;;28.56;63.26;99984.28;6319167;28;20040;-70
2022/08/24 11:04:31;;;;;;;4.93;2.10;;;;;;;28.61;69.65;99984.44;6320299;28;20095;-73
2022/08/24 11:07:34;;;;;;;7.72;2.40;;;;;;;29.06;66.87;99981.72;6296283;28;20052;-74
2022/08/24 11:10:37;;;;;;;5.63;1.92;;;;;;;29.46;66.01;99986.00;6294204;28;20094;-71
2022/08/24 11:13:59;;;;;;;4.22;1.90;;;;;;;29.21;64.17;99980.63;6310358;28;20086;-76
2022/08/24 11:17:16;;;;;;;;;;;;;;;29.35;66.28;99976.81;6320841;28;20044;-74
2022/08/24 11:20:30;;;;;;;6.13;2.10;;;;;;;29.67;66.27;99991.00;6319135;28;20339;-73
2022/08/24 11:23:35;;;;;;;5.05;2.30;;;;;;;29.96;61.25;99985.16;6319133;28;20048;-74
2022/08/24 11:27:08;;;;;;;4.55;1.98;;;;;;;29.86;63.16;99988.41;6302489;28;20055;-72
2022/08/24 11:30:11;;;;;;;10.13;2.13;;;;;;;29.09;66.20;99992.03;6294421;28;20052;-72
2022/08/24 11:33:48;;;;;;;5.30;2.20;;;;;;;29.80;58.41;99989.28;6312724;28;20048;-74
2022/08/24 11:36:49;;;;;;;8.25;2.42;;;;;;;30.04;58.36;99993.78;6311713;28;20548;-72
2022/08/24 11:39:49;;;;;;;6.07;2.15;;;;;;;29.22;61.14;99993.84;6318940;28;20039;-74
2022/08/24 11:43:28;;;;;;;4.72;2.15;;;;;;;29.23;62.30;99994.66;6320354;28;20039;-72
2022/08/24 11:46:54;;;;;;;9.52;2.30;;;;;;;29.42;65.90;99996.38;6271404;28;20078;-74
2022/08/24 11:50:13;;;;;;;7.45;2.45;;;;;;;29.86;58.07;99988.41;6305495;28;20040;-74
2022/08/24 11:53:45;;;;;;;5.05;2.20;;;;;;;29.48;60.16;99981.25;6296840;28;20043;-72
2022/08/24 11:56:56;;;;;;;6.50;2.25;;;;;;;29.98;57.11;99983.94;6299807;28;20047;-72
2022/08/24 12:00:17;;;;;;;5.97;2.10;;;;;;;29.65;55.41;99976.97;6299426;28;20071;-72
2022/08/24 12:03:36;;;;;;;5.80;2.00;;;;;;;28.70;59.27;99975.13;6280471;28;20135;-73
2022/08/24 12:06:43;;;;;;;4.38;2.00;;;;;;;28.34;61.68;99970.28;6330917;28;20052;-73
2022/08/24 12:10:09;;;;;;;3.63;1.83;;;;;;;28.08;62.14;99965.81;6331700;28;20496;-72
2022/08/24 12:13:18;;;;;;;7.43;2.88;;;;;;;28.01;66.06;99967.72;6299478;28;20033;-72
2022/08/24 12:16:41;;;;;;;4.10;2.10;;;;;;;28.75;63.11;99963.75;6308947;28;20052;-72
2022/08/24 12:19:57;;;;;;;6.32;1.92;;;;;;;29.25;59.88;99968.41;6313158;28;20040;-72
2022/08/24 12:23:15;;;;;;;5.50;1.85;;;;;;;29.32;57.49;99966.47;6293111;28;20057;-72
2022/08/24 12:26:25;;;;;;;5.65;2.15;;;;;;;29.32;58.17;99959.25;6312825;28;20040;-72
2022/08/24 12:29:37;;;;;;;6.27;2.00;;;;;;;29.24;56.45;99969.44;6309158;28;20113;-74
2022/08/24 12:32:43;;;;;;;6.80;2.13;;;;;;;29.56;55.82;99959.47;6314274;28;20454;-72
2022/08/24 12:35:52;;;;;;;6.68;2.08;;;;;;;29.47;59.08;99960.78;6308394;28;20094;-72
2022/08/24 12:39:07;;;;;;;6.53;2.10;;;;;;;29.28;58.47;99957.19;6280469;28;20045;-72
2022/08/24 12:42:44;;;;;;;4.88;2.10;;;;;;;29.47;59.96;99961.59;6298287;28;20048;-74
2022/08/24 12:45:46;;;;;;;6.43;2.10;;;;;;;29.20;58.68;99966.38;6298565;28;20408;-74
2022/08/24 12:48:59;;;;;;;6.20;2.10;;;;;;;29.12;59.34;99964.78;6298291;28;20045;-74
2022/08/24 12:52:34;;;;;;;13.23;2.60;;;;;;;28.98;56.56;99965.88;6307860;28;20119;-72
2022/08/24 12:56:12;;;;;;;7.30;2.88;;;;;;;29.04;57.16;99965.00;6304614;28;20040;-74
2022/08/24 12:59:28;;;;;;;5.22;2.15;;;;;;;28.96;56.70;99972.50;6298336;28;20094;-73
2022/08/24 13:02:36;;;;;;;7.95;1.80;;;;;;;29.07;55.94;99977.16;6313003;28;20045;-72
2022/08/24 13:05:47;;;;;;;5.68;1.90;;;;;;;28.93;57.55;99966.53;6297453;28;20057;-72
2022/08/24 13:08:49;;;;;;;7.97;2.00;;;;;;;29.07;56.42;99966.44;6331260;28;20052;-72
2022/08/24 13:11:50;;;;;;;3.75;2.00;;;;;;;28.71;56.69;99967.88;6302695;28;20094;-72
2022/08/24 13:14:51;;;;;;;5.85;2.20;;;;;;;28.65;58.40;99966.06;6318899;28;20075;-72
2022/08/24 13:18:20;;;;;;;7.43;2.17;;;;;;;28.79;58.48;99964.13;6333307;28;20495;-74
2022/08/24 13:21:45;;;;;;;8.25;2.33;;;;;;;29.03;55.88;99968.72;6321513;28;20052;-72
2022/08/24 13:24:57;;;;;;;8.32;2.40;;;;;;;29.11;57.39;99971.16;6356157;27;20063;-72
2022/08/24 13:28:08;;;;;;;8.00;2.10;;;;;;;29.19;56.78;99972.78;6321956;28;20119;-73
2022/08/24 13:31:11;;;;;;;6.93;2.15;;;;;;;29.28;59.00;99971.47;6314631;28;20051;-72
2022/08/24 13:34:13;;;;;;;5.00;1.95;;;;;;;29.23;59.82;99963.25;6322301;28;20047;-74
2022/08/24 13:37:22;;;;;;;6.68;1.73;;;;;;;29.11;60.74;99956.91;6321009;28;20437;-72
2022/08/24 13:40:26;;;;;;;7.38;2.17;;;;;;;28.94;59.84;99957.41;6280991;28;20059;-72
2022/08/24 13:43:41;;;;;;;6.97;2.28;;;;;;;28.63;59.31;99946.66;6297873;28;20385;-74
2022/08/24 13:46:53;;;;;;;6.00;2.20;;;;;;;28.63;59.75;99935.94;6297776;28;20123;-73
2022/08/24 13:50:23;;;;;;;6.15;2.22;;;;;;;28.54;59.38;99940.72;6299519;28;20125;-71
2022/08/24 13:53:45;;;;;;;5.03;2.00;;;;;;;28.59;61.62;99948.13;6305205;28;20051;-72
2022/08/24 13:57:01;;;;;;;6.65;2.20;;;;;;;28.60;60.81;99945.25;6306303;28;20048;-71
2022/08/24 14:00:54;;;;;;;4.13;1.95;;;;;;;28.63;62.06;99949.34;6296313;28;20052;-71
2022/08/24 14:04:33;;;;;;;8.68;2.03;;;;;;;28.69;64.45;99948.50;6303067;28;20056;-74
2022/08/24 14:08:11;;;;;;;8.63;2.22;;;;;;;28.78;64.51;99954.44;6320958;28;20103;-72
2022/08/24 14:11:34;;;;;;;7.80;1.98;;;;;;;28.69;59.46;99949.31;6305588;28;20056;-74
2022/08/24 14:15:13;;;;;;;5.13;2.03;;;;;;;28.72;60.55;99958.78;6310977;28;20039;-71
2022/08/24 14:18:36;;;;;;;5.78;1.92;;;;;;;28.65;58.98;99948.09;6305035;28;20048;-71
2022/08/24 14:22:09;;;;;;;5.43;2.40;;;;;;;28.55;58.20;99947.72;6329533;28;20048;-72
2022/08/24 14:25:20;;;;;;;5.47;2.10;;;;;;;28.37;59.75;99953.75;6302868;28;20056;-74
2022/08/24 14:28:39;;;;;;;6.82;2.53;;;;;;;28.47;61.18;99950.63;6322097;28;20078;-71
2022/08/24 14:32:09;;;;;;;6.53;2.10;;;;;;;28.52;58.52;99953.53;6320847;28;20052;-73
2022/08/24 14:35:14;;;;;;;5.50;2.20;;;;;;;28.26;59.76;99952.56;6321843;28;20044;-74
2022/08/24 14:38:20;;;;;;;6.07;2.13;;;;;;;28.29;59.88;99948.63;6320569;28;20047;-74
2022/08/24 14:41:45;;;;;;;8.52;2.40;;;;;;;28.47;64.01;99958.69;6302371;28;20036;-74
2022/08/24 14:44:55;;;;;;;9.30;2.15;;;;;;;28.49;60.06;99957.44;6278772;28;20066;-74
2022/08/24 14:48:37;;;;;;;5.78;2.10;;;;;;;28.57;62.85;99951.03;6312826;28;20056;-74